Safety Runner — WDI4835 — position and weather

sailwx.info

Track history (hours):
 
Tides and Currents Weather Stations Pressure Air Temp Water Temp Dewpoint Dewpoint Depression Visibility Wind Speed Wind Dir Waves Ship Positions

Safety Runner

Owner: American Commercial Barge Line LLC, Jeffersonville, IN. More information available from US FCC via Universal Licensing System and Coast Guard Vessel Documentation Center.

Last reported at 2018-Jun-21 13:06 UTC. Time now 2018-Jun-21 23:55 UTC.
Position N 29°26' W 094°43'.

Length 21 m; draft 3 m.

Type: Towing. MMSI: 367702520.

Date/timePositionNaut miles runAvg speedWind from/ knotsBaromVisibWave heightAir tempDewpointWater temp
2018-Jun-21 13:06N 29°26' W 094°43'0 0.0
2018-Jun-21 12:53N 29°26' W 094°43'3 0.1
2018-Jun-19 19:39N 29°23' W 094°46'2 5.8
2018-Jun-19 19:21N 29°22' W 094°47'2 5.9
2018-Jun-19 19:00N 29°21' W 094°49'3 6.4
2018-Jun-19 18:30N 29°19' W 094°52'3 5.7
2018-Jun-19 18:00N 29°17' W 094°55'3 6.0
2018-Jun-19 17:30N 29°17' W 094°58'3 6.1
2018-Jun-19 17:00N 29°15' W 095°01'3 6.2
2018-Jun-19 16:30N 29°12' W 095°03'3 6.5
2018-Jun-19 16:01N 29°11' W 095°06'3 6.4
2018-Jun-19 15:30N 29°09' W 095°09'3 6.4
2018-Jun-19 15:01N 29°07' W 095°12'3 6.3
2018-Jun-19 14:30N 29°04' W 095°13'10 1.2
2018-Jun-19 06:12N 28°56' W 095°20'0 0.0
2018-Jun-19 05:25N 28°56' W 095°20'0 0.0
2018-Jun-19 04:41N 28°56' W 095°20'0 0.0
2018-Jun-19 04:20N 28°56' W 095°20'0 0.0
2018-Jun-19 04:00N 28°56' W 095°20'0 0.0
2018-Jun-19 03:27N 28°56' W 095°20'0 0.0
2018-Jun-19 02:38N 28°56' W 095°20'0 0.0
2018-Jun-19 02:24N 28°56' W 095°20'0 0.0
2018-Jun-19 01:53N 28°56' W 095°20'0 0.0
2018-Jun-19 01:18N 28°56' W 095°20'0 0.0
2018-Jun-19 00:53N 28°56' W 095°20'0 0.0
2018-Jun-19 00:30N 28°56' W 095°20'0 0.0
2018-Jun-18 23:59N 28°56' W 095°20'0 0.0
2018-Jun-18 23:28N 28°56' W 095°20'0 0.0
2018-Jun-18 22:56N 28°56' W 095°20'0 0.0
2018-Jun-18 22:30N 28°56' W 095°20'0 0.0
2018-Jun-18 21:57N 28°56' W 095°20'0 0.0
2018-Jun-18 21:30N 28°56' W 095°20'0 0.0
2018-Jun-18 20:55N 28°56' W 095°20'0 0.0
2018-Jun-18 20:29N 28°56' W 095°20'0 0.0
2018-Jun-18 19:59N 28°56' W 095°20'0 0.0
2018-Jun-18 19:27N 28°56' W 095°20'0 0.0
2018-Jun-18 18:54N 28°56' W 095°20'0 0.0
2018-Jun-18 18:25N 28°56' W 095°20'0 0.0
2018-Jun-18 17:59N 28°56' W 095°20'0 0.1
2018-Jun-18 17:30N 28°56' W 095°20'0 0.0
2018-Jun-18 17:01N 28°56' W 095°20'1 1.1
2018-Jun-18 16:29N 28°57' W 095°20'1 1.4
2018-Jun-18 16:00N 28°57' W 095°20'1 1.1
2018-Jun-18 15:29N 28°57' W 095°20'0 0.0
2018-Jun-18 14:51N 28°57' W 095°20'0 0.0
2018-Jun-18 14:28N 28°57' W 095°20'0 0.0
2018-Jun-18 14:01N 28°57' W 095°20'0 0.0
2018-Jun-18 13:25N 28°57' W 095°20'0 0.0
2018-Jun-18 12:59N 28°57' W 095°20'0 0.0
2018-Jun-18 12:28N 28°57' W 095°20'0 0.0
2018-Jun-18 12:01N 28°57' W 095°20'0 0.0
2018-Jun-18 11:23N 28°57' W 095°20'0 0.0
2018-Jun-18 10:58N 28°57' W 095°20'0 0.0
2018-Jun-18 10:26N 28°57' W 095°20'0 0.0
2018-Jun-18 10:00N 28°57' W 095°20'0 0.0
2018-Jun-18 09:30N 28°57' W 095°20'0 0.0
2018-Jun-18 08:59N 28°57' W 095°20'0 0.0
2018-Jun-18 08:29N 28°57' W 095°20'0 0.0
2018-Jun-18 07:58N 28°57' W 095°20'0 0.0
2018-Jun-18 03:37N 28°57' W 095°20'0 0.0
2018-Jun-18 03:12N 28°57' W 095°20'0 0.0
2018-Jun-18 02:59N 28°57' W 095°20'0 0.0
2018-Jun-18 01:36N 28°57' W 095°20'0 0.0
2018-Jun-18 00:39N 28°57' W 095°20'0 0.0
2018-Jun-18 00:29N 28°57' W 095°20'0 0.0
2018-Jun-17 23:59N 28°57' W 095°20'0 0.0
2018-Jun-17 23:28N 28°57' W 095°20'0 0.0
2018-Jun-17 23:00N 28°57' W 095°20'0 0.0
2018-Jun-17 22:30N 28°57' W 095°20'0 0.0
2018-Jun-17 21:53N 28°57' W 095°20'0 0.0
2018-Jun-17 21:27N 28°57' W 095°20'0 0.0
2018-Jun-17 21:00N 28°57' W 095°20'0 0.0
2018-Jun-17 20:21N 28°57' W 095°20'0 0.0
2018-Jun-17 19:56N 28°57' W 095°20'0 0.0
2018-Jun-17 19:27N 28°57' W 095°20'0 0.0
2018-Jun-17 19:00N 28°57' W 095°20'0 0.0
2018-Jun-17 18:30N 28°57' W 095°20'0 0.0
2018-Jun-17 18:00N 28°57' W 095°20'0 0.0
2018-Jun-17 17:30N 28°57' W 095°20'0 0.0
2018-Jun-17 16:58N 28°57' W 095°20'0 0.0
2018-Jun-17 16:25N 28°57' W 095°20'4 0.2
2018-Jun-17 01:07N 28°59' W 095°16'1 5.9
2018-Jun-17 01:00N 28°59' W 095°16'3 5.7
2018-Jun-17 00:30N 29°02' W 095°14'3 5.1
2018-Jun-17 00:00N 29°04' W 095°13'3 5.3
2018-Jun-16 23:31N 29°06' W 095°12'3 5.4
2018-Jun-16 23:01N 29°08' W 095°10'3 5.2
2018-Jun-16 22:30N 29°10' W 095°07'2 4.4
2018-Jun-16 22:00N 29°11' W 095°05'3 5.4
2018-Jun-16 21:30N 29°12' W 095°03'3 5.1
2018-Jun-16 21:01N 29°15' W 095°01'3 5.4
2018-Jun-16 20:30N 29°17' W 094°59'3 5.6
2018-Jun-16 20:00N 29°17' W 094°56'3 5.1
2018-Jun-16 19:29N 29°18' W 094°53'3 5.8
2018-Jun-16 19:00N 29°20' W 094°50'3 5.3
2018-Jun-16 18:29N 29°22' W 094°48'3 5.4
2018-Jun-16 17:59N 29°24' W 094°49'10 5.3
2018-Jun-16 16:08N 29°33' W 094°55'1 5.2
2018-Jun-16 16:00N 29°34' W 094°55'3 5.5
2018-Jun-16 15:30N 29°36' W 094°57'3 5.2
2018-Jun-16 15:00N 29°37' W 094°60'1 2.8
2018-Jun-16 14:30N 29°37' W 095°01'0 0.0
2018-Jun-16 12:24N 29°37' W 095°01'0 0.0
2018-Jun-16 05:03N 29°37' W 095°02'0 0.0
2018-Jun-16 04:40N 29°37' W 095°02'0 0.0
2018-Jun-16 04:12N 29°37' W 095°02'0 0.0
2018-Jun-16 03:58N 29°37' W 095°02'0 0.0
2018-Jun-15 23:30N 29°37' W 095°01'0 0.1
2018-Jun-15 23:00N 29°37' W 095°02'0 0.0
2018-Jun-15 22:23N 29°37' W 095°02'0 0.0
2018-Jun-15 21:52N 29°37' W 095°02'0 0.0
2018-Jun-15 21:25N 29°37' W 095°02'0 0.0
2018-Jun-15 20:56N 29°37' W 095°02'0 0.0
2018-Jun-15 20:26N 29°37' W 095°02'0 0.0
2018-Jun-15 19:58N 29°37' W 095°02'0 0.1
2018-Jun-15 19:28N 29°37' W 095°01'0 0.0
2018-Jun-15 18:27N 29°37' W 095°01'0 0.1
2018-Jun-15 18:00N 29°37' W 095°01'1 1.3
2018-Jun-15 17:30N 29°37' W 095°01'3 5.5
2018-Jun-15 16:59N 29°37' W 094°57'15 7.6
2018-Jun-15 14:58N 29°23' W 094°49'  
Track history (hours):
 
Tides and Currents Weather Stations Pressure Air Temp Water Temp Dewpoint Dewpoint Depression Visibility Wind Speed Wind Dir Waves Ship Positions

Safety Runner

Owner: American Commercial Barge Line LLC, Jeffersonville, IN. More information available from US FCC via Universal Licensing System and Coast Guard Vessel Documentation Center.

Last reported at 2018-Jun-21 13:06 UTC. Time now 2018-Jun-21 23:55 UTC.
Position N 29°26' W 094°43'.

Length 21 m; draft 3 m.

Type: Towing. MMSI: 367702520.

Date/timePositionNaut miles runAvg speedWind from/ knotsBaromVisibWave heightAir tempDewpointWater temp
2018-Jun-21 13:06N 29°26' W 094°43'0 0.0
2018-Jun-21 12:53N 29°26' W 094°43'3 0.1
2018-Jun-19 19:39N 29°23' W 094°46'2 5.8
2018-Jun-19 19:21N 29°22' W 094°47'2 5.9
2018-Jun-19 19:00N 29°21' W 094°49'3 6.4
2018-Jun-19 18:30N 29°19' W 094°52'3 5.7
2018-Jun-19 18:00N 29°17' W 094°55'3 6.0
2018-Jun-19 17:30N 29°17' W 094°58'3 6.1
2018-Jun-19 17:00N 29°15' W 095°01'3 6.2
2018-Jun-19 16:30N 29°12' W 095°03'3 6.5
2018-Jun-19 16:01N 29°11' W 095°06'3 6.4
2018-Jun-19 15:30N 29°09' W 095°09'3 6.4
2018-Jun-19 15:01N 29°07' W 095°12'3 6.3
2018-Jun-19 14:30N 29°04' W 095°13'10 1.2
2018-Jun-19 06:12N 28°56' W 095°20'0 0.0
2018-Jun-19 05:25N 28°56' W 095°20'0 0.0
2018-Jun-19 04:41N 28°56' W 095°20'0 0.0
2018-Jun-19 04:20N 28°56' W 095°20'0 0.0
2018-Jun-19 04:00N 28°56' W 095°20'0 0.0
2018-Jun-19 03:27N 28°56' W 095°20'0 0.0
2018-Jun-19 02:38N 28°56' W 095°20'0 0.0
2018-Jun-19 02:24N 28°56' W 095°20'0 0.0
2018-Jun-19 01:53N 28°56' W 095°20'0 0.0
2018-Jun-19 01:18N 28°56' W 095°20'0 0.0
2018-Jun-19 00:53N 28°56' W 095°20'0 0.0
2018-Jun-19 00:30N 28°56' W 095°20'0 0.0
2018-Jun-18 23:59N 28°56' W 095°20'0 0.0
2018-Jun-18 23:28N 28°56' W 095°20'0 0.0
2018-Jun-18 22:56N 28°56' W 095°20'0 0.0
2018-Jun-18 22:30N 28°56' W 095°20'0 0.0
2018-Jun-18 21:57N 28°56' W 095°20'0 0.0
2018-Jun-18 21:30N 28°56' W 095°20'0 0.0
2018-Jun-18 20:55N 28°56' W 095°20'0 0.0
2018-Jun-18 20:29N 28°56' W 095°20'0 0.0
2018-Jun-18 19:59N 28°56' W 095°20'0 0.0
2018-Jun-18 19:27N 28°56' W 095°20'0 0.0
2018-Jun-18 18:54N 28°56' W 095°20'0 0.0
2018-Jun-18 18:25N 28°56' W 095°20'0 0.0
2018-Jun-18 17:59N 28°56' W 095°20'0 0.1
2018-Jun-18 17:30N 28°56' W 095°20'0 0.0
2018-Jun-18 17:01N 28°56' W 095°20'1 1.1
2018-Jun-18 16:29N 28°57' W 095°20'1 1.4
2018-Jun-18 16:00N 28°57' W 095°20'1 1.1
2018-Jun-18 15:29N 28°57' W 095°20'0 0.0
2018-Jun-18 14:51N 28°57' W 095°20'0 0.0
2018-Jun-18 14:28N 28°57' W 095°20'0 0.0
2018-Jun-18 14:01N 28°57' W 095°20'0 0.0
2018-Jun-18 13:25N 28°57' W 095°20'0 0.0
2018-Jun-18 12:59N 28°57' W 095°20'0 0.0
2018-Jun-18 12:28N 28°57' W 095°20'0 0.0
2018-Jun-18 12:01N 28°57' W 095°20'0 0.0
2018-Jun-18 11:23N 28°57' W 095°20'0 0.0
2018-Jun-18 10:58N 28°57' W 095°20'0 0.0
2018-Jun-18 10:26N 28°57' W 095°20'0 0.0
2018-Jun-18 10:00N 28°57' W 095°20'0 0.0
2018-Jun-18 09:30N 28°57' W 095°20'0 0.0
2018-Jun-18 08:59N 28°57' W 095°20'0 0.0
2018-Jun-18 08:29N 28°57' W 095°20'0 0.0
2018-Jun-18 07:58N 28°57' W 095°20'0 0.0
2018-Jun-18 03:37N 28°57' W 095°20'0 0.0
2018-Jun-18 03:12N 28°57' W 095°20'0 0.0
2018-Jun-18 02:59N 28°57' W 095°20'0 0.0
2018-Jun-18 01:36N 28°57' W 095°20'0 0.0
2018-Jun-18 00:39N 28°57' W 095°20'0 0.0
2018-Jun-18 00:29N 28°57' W 095°20'0 0.0
2018-Jun-17 23:59N 28°57' W 095°20'0 0.0
2018-Jun-17 23:28N 28°57' W 095°20'0 0.0
2018-Jun-17 23:00N 28°57' W 095°20'0 0.0
2018-Jun-17 22:30N 28°57' W 095°20'0 0.0
2018-Jun-17 21:53N 28°57' W 095°20'0 0.0
2018-Jun-17 21:27N 28°57' W 095°20'0 0.0
2018-Jun-17 21:00N 28°57' W 095°20'0 0.0
2018-Jun-17 20:21N 28°57' W 095°20'0 0.0
2018-Jun-17 19:56N 28°57' W 095°20'0 0.0
2018-Jun-17 19:27N 28°57' W 095°20'0 0.0
2018-Jun-17 19:00N 28°57' W 095°20'0 0.0
2018-Jun-17 18:30N 28°57' W 095°20'0 0.0
2018-Jun-17 18:00N 28°57' W 095°20'0 0.0
2018-Jun-17 17:30N 28°57' W 095°20'0 0.0
2018-Jun-17 16:58N 28°57' W 095°20'0 0.0
2018-Jun-17 16:25N 28°57' W 095°20'4 0.2
2018-Jun-17 01:07N 28°59' W 095°16'1 5.9
2018-Jun-17 01:00N 28°59' W 095°16'3 5.7
2018-Jun-17 00:30N 29°02' W 095°14'3 5.1
2018-Jun-17 00:00N 29°04' W 095°13'3 5.3
2018-Jun-16 23:31N 29°06' W 095°12'3 5.4
2018-Jun-16 23:01N 29°08' W 095°10'3 5.2
2018-Jun-16 22:30N 29°10' W 095°07'2 4.4
2018-Jun-16 22:00N 29°11' W 095°05'3 5.4
2018-Jun-16 21:30N 29°12' W 095°03'3 5.1
2018-Jun-16 21:01N 29°15' W 095°01'3 5.4
2018-Jun-16 20:30N 29°17' W 094°59'3 5.6
2018-Jun-16 20:00N 29°17' W 094°56'3 5.1
2018-Jun-16 19:29N 29°18' W 094°53'3 5.8
2018-Jun-16 19:00N 29°20' W 094°50'3 5.3
2018-Jun-16 18:29N 29°22' W 094°48'3 5.4
2018-Jun-16 17:59N 29°24' W 094°49'10 5.3
2018-Jun-16 16:08N 29°33' W 094°55'1 5.2
2018-Jun-16 16:00N 29°34' W 094°55'3 5.5
2018-Jun-16 15:30N 29°36' W 094°57'3 5.2
2018-Jun-16 15:00N 29°37' W 094°60'1 2.8
2018-Jun-16 14:30N 29°37' W 095°01'0 0.0
2018-Jun-16 12:24N 29°37' W 095°01'0 0.0
2018-Jun-16 05:03N 29°37' W 095°02'0 0.0
2018-Jun-16 04:40N 29°37' W 095°02'0 0.0
2018-Jun-16 04:12N 29°37' W 095°02'0 0.0
2018-Jun-16 03:58N 29°37' W 095°02'0 0.0
2018-Jun-15 23:30N 29°37' W 095°01'0 0.1
2018-Jun-15 23:00N 29°37' W 095°02'0 0.0
2018-Jun-15 22:23N 29°37' W 095°02'0 0.0
2018-Jun-15 21:52N 29°37' W 095°02'0 0.0
2018-Jun-15 21:25N 29°37' W 095°02'0 0.0
2018-Jun-15 20:56N 29°37' W 095°02'0 0.0
2018-Jun-15 20:26N 29°37' W 095°02'0 0.0
2018-Jun-15 19:58N 29°37' W 095°02'0 0.1
2018-Jun-15 19:28N 29°37' W 095°01'0 0.0
2018-Jun-15 18:27N 29°37' W 095°01'0 0.1
2018-Jun-15 18:00N 29°37' W 095°01'1 1.3
2018-Jun-15 17:30N 29°37' W 095°01'3 5.5
2018-Jun-15 16:59N 29°37' W 094°57'15 7.6
2018-Jun-15 14:58N 29°23' W 094°49'  

Dump ship's entire track history